createdAt,value
2022-12-29T00:01:17.224Z,39.61
2022-12-29T00:03:43.644Z,39.21
2022-12-29T00:06:10.046Z,38.98
2022-12-29T00:08:36.311Z,39.62
2022-12-29T00:11:02.601Z,39.29
2022-12-29T00:13:28.875Z,39.12
2022-12-29T00:15:55.189Z,38.84
2022-12-29T00:18:21.531Z,38.37
2022-12-29T00:20:47.852Z,38.17
2022-12-29T00:23:14.075Z,38.24
2022-12-29T00:25:40.477Z,39.86
2022-12-29T00:28:07.207Z,41.15
2022-12-29T00:30:33.614Z,41.50
2022-12-29T00:32:59.906Z,40.70
2022-12-29T00:35:26.154Z,40.39
2022-12-29T00:37:52.400Z,39.83
2022-12-29T00:40:18.714Z,40.09
2022-12-29T00:42:44.972Z,40.23
2022-12-29T00:45:11.208Z,40.79
2022-12-29T00:47:37.489Z,40.70
2022-12-29T00:50:03.921Z,41.14
2022-12-29T00:52:30.159Z,41.02
2022-12-29T00:54:56.391Z,39.88
2022-12-29T00:57:22.629Z,39.65
2022-12-29T00:59:48.875Z,39.55
2022-12-29T01:02:15.282Z,39.88
2022-12-29T01:04:41.651Z,41.40
2022-12-29T01:07:07.890Z,41.49
2022-12-29T01:09:34.171Z,39.81
2022-12-29T01:12:00.490Z,39.73
2022-12-29T01:14:26.753Z,41.17
2022-12-29T01:16:53.073Z,40.88
2022-12-29T01:19:19.347Z,41.10
2022-12-29T01:21:45.568Z,41.14
2022-12-29T01:24:11.827Z,41.63
2022-12-29T01:26:38.078Z,42.74
2022-12-29T01:29:04.327Z,44.09
2022-12-29T01:31:30.709Z,44.56
2022-12-29T01:33:57.035Z,44.60
2022-12-29T01:36:23.301Z,44.98
2022-12-29T01:38:49.656Z,43.84
2022-12-29T01:41:15.915Z,42.99
2022-12-29T01:43:42.175Z,42.45
2022-12-29T01:46:08.500Z,43.12
2022-12-29T01:48:34.765Z,43.22
2022-12-29T01:51:01.010Z,43.42
2022-12-29T01:53:27.328Z,43.81
2022-12-29T01:55:53.584Z,42.28
2022-12-29T01:58:19.823Z,42.44
2022-12-29T02:00:46.089Z,42.34
2022-12-29T02:03:12.444Z,42.09
2022-12-29T02:05:38.746Z,42.45
2022-12-29T02:08:04.990Z,43.69
2022-12-29T02:10:31.258Z,43.99
2022-12-29T02:12:57.520Z,43.31
2022-12-29T02:15:23.828Z,42.39
2022-12-29T02:17:50.071Z,41.86
2022-12-29T02:20:16.332Z,41.57
2022-12-29T02:22:42.647Z,40.91
2022-12-29T02:25:08.906Z,41.41
2022-12-29T02:27:35.160Z,42.26
2022-12-29T02:30:01.444Z,42.71
2022-12-29T02:32:27.710Z,41.76
2022-12-29T02:34:53.965Z,42.28
2022-12-29T02:37:20.277Z,42.57
2022-12-29T02:39:46.522Z,41.89
2022-12-29T02:42:12.773Z,40.36
2022-12-29T02:44:39.087Z,40.16
2022-12-29T02:47:05.415Z,41.50
2022-12-29T02:49:31.656Z,42.48
2022-12-29T02:51:57.964Z,41.30
2022-12-29T02:54:24.284Z,41.25
2022-12-29T02:56:50.582Z,41.77
2022-12-29T02:59:16.914Z,42.03
2022-12-29T03:01:44.685Z,42.26
2022-12-29T03:04:11.020Z,42.16
2022-12-29T03:06:37.356Z,40.84
2022-12-29T03:09:03.653Z,42.01
2022-12-29T03:11:29.919Z,41.71
2022-12-29T03:13:56.221Z,40.91
2022-12-29T03:16:22.538Z,40.32
2022-12-29T03:18:48.914Z,40.69
2022-12-29T03:21:15.215Z,40.33
2022-12-29T03:23:41.532Z,39.95
2022-12-29T03:26:07.784Z,40.39
2022-12-29T03:28:34.061Z,40.58
2022-12-29T03:31:00.629Z,40.98
2022-12-29T03:33:26.892Z,40.81
2022-12-29T03:35:53.185Z,42.00
2022-12-29T03:38:19.460Z,42.67
2022-12-29T03:40:45.784Z,43.05
2022-12-29T03:43:12.078Z,43.96
2022-12-29T03:45:38.316Z,44.28
2022-12-29T03:48:04.543Z,44.42
2022-12-29T03:50:30.863Z,43.90
2022-12-29T03:52:57.135Z,44.48
2022-12-29T03:55:23.395Z,44.04
2022-12-29T03:57:49.652Z,43.78
2022-12-29T04:00:15.889Z,44.80
2022-12-29T04:02:42.279Z,44.73
2022-12-29T04:05:09.063Z,41.87
2022-12-29T04:07:35.385Z,41.48
2022-12-29T04:10:01.683Z,40.40
2022-12-29T04:12:28.020Z,40.42
2022-12-29T04:14:54.372Z,40.19
2022-12-29T04:17:20.626Z,41.70
2022-12-29T04:19:47.041Z,40.69
2022-12-29T04:22:13.304Z,39.12
2022-12-29T04:24:40.607Z,38.75
2022-12-29T04:27:06.852Z,39.26
2022-12-29T04:29:33.971Z,40.08
2022-12-29T04:32:00.454Z,38.90
2022-12-29T04:34:26.709Z,38.79
2022-12-29T04:36:53.004Z,38.54
2022-12-29T04:39:19.277Z,38.90
2022-12-29T04:41:45.526Z,40.05
2022-12-29T04:44:11.795Z,39.26
2022-12-29T04:46:38.108Z,41.07
2022-12-29T04:49:04.388Z,41.35
2022-12-29T04:51:30.626Z,41.57
2022-12-29T04:53:56.938Z,40.91
2022-12-29T04:56:23.222Z,41.37
2022-12-29T04:58:49.467Z,39.46
2022-12-29T05:01:15.735Z,38.81
2022-12-29T05:03:42.128Z,38.66
2022-12-29T05:06:08.478Z,38.55
2022-12-29T05:08:34.737Z,38.57
2022-12-29T05:11:01.023Z,37.76
2022-12-29T05:13:27.261Z,37.83
2022-12-29T05:15:53.577Z,37.58
2022-12-29T05:18:20.044Z,39.21
2022-12-29T05:20:46.333Z,40.17
2022-12-29T05:23:12.611Z,41.67
2022-12-29T05:25:38.944Z,40.77
2022-12-29T05:28:05.196Z,41.28
2022-12-29T05:30:31.441Z,40.00
2022-12-29T05:32:57.736Z,40.14
2022-12-29T05:35:24.160Z,40.91
2022-12-29T05:37:50.411Z,44.18
2022-12-29T05:40:16.669Z,44.93
2022-12-29T05:42:43.602Z,44.42
2022-12-29T05:45:09.832Z,43.41
2022-12-29T05:47:36.142Z,45.65
2022-12-29T05:50:02.436Z,43.91
2022-12-29T05:52:28.688Z,42.90
2022-12-29T05:54:54.943Z,42.98
2022-12-29T05:57:21.246Z,43.37
2022-12-29T05:59:47.537Z,43.81
2022-12-29T06:02:13.924Z,43.84
2022-12-29T06:04:40.518Z,44.49
2022-12-29T06:07:06.773Z,41.84
2022-12-29T06:09:33.611Z,41.88
2022-12-29T06:11:59.925Z,42.02
2022-12-29T06:14:26.180Z,41.58
2022-12-29T06:16:52.476Z,41.77
2022-12-29T06:19:18.951Z,42.38
2022-12-29T06:21:45.193Z,40.45
2022-12-29T06:24:11.447Z,42.62
2022-12-29T06:26:37.689Z,43.13
2022-12-29T06:29:03.974Z,43.68
2022-12-29T06:31:30.420Z,43.09
2022-12-29T06:33:56.696Z,42.30
2022-12-29T06:36:22.926Z,40.92
2022-12-29T06:38:50.039Z,40.63
2022-12-29T06:41:16.368Z,41.52
2022-12-29T06:43:43.544Z,41.53
2022-12-29T06:46:09.906Z,42.49
2022-12-29T06:48:36.245Z,39.62
2022-12-29T06:51:02.491Z,38.59
2022-12-29T06:53:28.802Z,39.34
2022-12-29T06:55:55.085Z,39.67
2022-12-29T06:58:21.314Z,39.29
2022-12-29T07:00:47.672Z,39.20
2022-12-29T07:03:14.053Z,40.91
2022-12-29T07:05:40.404Z,38.87
2022-12-29T07:08:06.715Z,38.50
2022-12-29T07:10:33.565Z,39.76
2022-12-29T07:12:59.806Z,40.75
2022-12-29T07:15:26.094Z,41.70
2022-12-29T07:17:52.407Z,40.10
2022-12-29T07:20:24.709Z,40.85
2022-12-29T07:22:52.904Z,41.05
2022-12-29T07:25:19.146Z,40.92
2022-12-29T07:27:45.429Z,40.44
2022-12-29T07:30:11.717Z,40.85
2022-12-29T07:32:37.986Z,40.83
2022-12-29T07:35:04.233Z,41.25
2022-12-29T07:37:30.480Z,44.66
2022-12-29T07:39:56.937Z,45.30
2022-12-29T07:42:23.228Z,44.11
2022-12-29T07:44:49.488Z,43.45
2022-12-29T07:47:15.808Z,44.00
2022-12-29T07:49:42.206Z,43.74
2022-12-29T07:52:08.469Z,43.91
2022-12-29T07:54:34.780Z,43.42
2022-12-29T07:57:01.065Z,43.19
2022-12-29T07:59:27.336Z,42.73
2022-12-29T08:01:53.743Z,42.07
2022-12-29T08:04:20.123Z,41.65
2022-12-29T08:06:46.415Z,43.12
2022-12-29T08:09:19.641Z,41.63
2022-12-29T08:11:48.478Z,41.16
2022-12-29T08:14:14.794Z,41.24
2022-12-29T08:16:41.045Z,41.75
2022-12-29T08:19:07.315Z,40.75
2022-12-29T08:21:33.600Z,41.60
2022-12-29T08:23:59.916Z,42.55
2022-12-29T08:26:26.367Z,42.02
2022-12-29T08:28:52.631Z,42.87
2022-12-29T08:31:18.964Z,44.06
2022-12-29T08:33:45.531Z,43.84
2022-12-29T08:36:11.864Z,43.22
2022-12-29T08:38:38.775Z,42.16
2022-12-29T08:41:05.057Z,42.07
2022-12-29T08:43:31.282Z,42.45
2022-12-29T08:45:57.628Z,42.46
2022-12-29T08:48:23.956Z,43.74
2022-12-29T08:50:50.214Z,45.09
2022-12-29T08:53:16.541Z,43.65
2022-12-29T08:55:42.862Z,41.75
2022-12-29T08:58:09.152Z,40.82
2022-12-29T09:00:35.445Z,40.20
2022-12-29T09:03:01.896Z,39.97
2022-12-29T09:05:28.337Z,42.02
2022-12-29T09:07:56.098Z,42.25
2022-12-29T09:10:22.515Z,42.20
2022-12-29T09:12:48.794Z,41.15
2022-12-29T09:15:15.095Z,40.30
2022-12-29T09:17:41.408Z,39.95
2022-12-29T09:20:07.672Z,40.43
2022-12-29T09:22:34.036Z,41.13
2022-12-29T09:25:00.372Z,41.50
2022-12-29T09:27:26.620Z,41.64
2022-12-29T09:29:53.040Z,41.34
2022-12-29T09:32:19.881Z,40.69
2022-12-29T09:34:47.289Z,39.50
2022-12-29T09:37:13.600Z,39.32
2022-12-29T09:39:39.864Z,38.76
2022-12-29T09:42:06.141Z,38.37
2022-12-29T09:44:32.477Z,38.77
2022-12-29T09:46:58.965Z,40.08
2022-12-29T09:49:25.286Z,40.28
2022-12-29T09:51:51.582Z,47.33
2022-12-29T09:54:17.839Z,48.88
2022-12-29T09:56:44.087Z,47.32
2022-12-29T09:59:10.401Z,46.75
2022-12-29T10:01:36.819Z,46.58
2022-12-29T10:04:03.217Z,45.69
2022-12-29T10:06:29.560Z,43.37
2022-12-29T10:08:55.806Z,42.96
2022-12-29T10:11:22.032Z,40.05
2022-12-29T10:13:48.345Z,36.82
2022-12-29T10:16:14.686Z,37.11
2022-12-29T10:18:40.957Z,36.00
2022-12-29T10:21:07.282Z,36.79
2022-12-29T10:23:33.671Z,39.36
2022-12-29T10:25:59.915Z,40.09
2022-12-29T10:28:26.263Z,38.85
2022-12-29T10:30:52.803Z,39.06
2022-12-29T10:33:19.058Z,38.45
2022-12-29T10:35:45.351Z,37.87
2022-12-29T10:38:11.624Z,37.62
2022-12-29T10:40:37.878Z,36.41
2022-12-29T10:43:04.168Z,36.52
2022-12-29T10:45:30.541Z,36.49
2022-12-29T10:47:56.882Z,36.27
2022-12-29T10:50:23.187Z,35.70
2022-12-29T10:52:49.460Z,35.82
2022-12-29T10:55:15.711Z,35.39
2022-12-29T10:57:42.158Z,35.44
2022-12-29T11:00:08.420Z,34.68
2022-12-29T11:02:34.747Z,34.15
2022-12-29T11:05:01.184Z,33.97
2022-12-29T11:07:27.851Z,38.53
2022-12-29T11:09:54.230Z,40.78
2022-12-29T11:12:20.568Z,42.04
2022-12-29T11:14:46.856Z,42.34
2022-12-29T11:17:13.126Z,41.67
2022-12-29T11:19:41.295Z,40.42
2022-12-29T11:22:07.667Z,39.67
2022-12-29T11:24:33.931Z,39.67
2022-12-29T11:27:00.209Z,39.49
2022-12-29T11:29:26.529Z,38.64
2022-12-29T11:31:52.923Z,38.64
2022-12-29T11:34:19.241Z,38.70
2022-12-29T11:36:45.569Z,38.61
2022-12-29T11:39:14.046Z,38.58
2022-12-29T11:41:40.541Z,38.74
2022-12-29T11:44:06.863Z,40.17
2022-12-29T11:46:33.250Z,39.42
2022-12-29T11:48:59.960Z,39.18
2022-12-29T11:51:26.303Z,39.59
2022-12-29T11:53:52.984Z,39.24
2022-12-29T11:56:19.371Z,38.65
2022-12-29T11:58:45.660Z,38.22
2022-12-29T12:01:11.936Z,37.42
2022-12-29T12:03:38.258Z,37.80
2022-12-29T12:06:04.602Z,36.92
2022-12-29T12:08:30.883Z,37.42
2022-12-29T12:10:57.125Z,38.10
2022-12-29T12:13:23.484Z,38.29
2022-12-29T12:15:55.988Z,39.28
2022-12-29T12:18:22.865Z,39.77
2022-12-29T12:20:50.365Z,38.81
2022-12-29T12:23:16.629Z,40.66
2022-12-29T12:25:42.946Z,39.90
2022-12-29T12:28:09.245Z,39.23
2022-12-29T12:30:35.536Z,39.06
2022-12-29T12:33:01.918Z,39.47
2022-12-29T12:35:28.236Z,39.83
2022-12-29T12:37:54.497Z,39.04
2022-12-29T12:40:20.829Z,41.30
2022-12-29T12:42:47.198Z,41.60
2022-12-29T12:45:13.464Z,41.56
2022-12-29T12:47:39.695Z,41.21
2022-12-29T12:50:05.975Z,40.38
2022-12-29T12:52:32.281Z,41.02
2022-12-29T12:54:58.534Z,41.07
2022-12-29T12:57:24.837Z,40.27
2022-12-29T12:59:51.141Z,39.87
2022-12-29T13:02:17.488Z,40.82
2022-12-29T13:04:43.868Z,42.61
2022-12-29T13:07:10.180Z,43.88
2022-12-29T13:09:36.492Z,43.54
2022-12-29T13:12:02.734Z,42.85
2022-12-29T13:14:29.033Z,44.29
2022-12-29T13:16:55.388Z,43.21
2022-12-29T13:19:21.654Z,42.59
2022-12-29T13:21:56.214Z,42.48
2022-12-29T13:24:25.156Z,41.36
2022-12-29T13:26:51.456Z,40.90
2022-12-29T13:29:17.680Z,41.08
2022-12-29T13:31:43.968Z,41.06
2022-12-29T13:34:10.344Z,42.63
2022-12-29T13:36:36.964Z,42.79
2022-12-29T13:39:03.286Z,40.92
2022-12-29T13:41:29.545Z,40.08
2022-12-29T13:43:55.833Z,40.00
2022-12-29T13:46:22.157Z,40.94
2022-12-29T13:48:48.453Z,39.44
2022-12-29T13:51:14.820Z,40.33
2022-12-29T13:53:43.205Z,42.36
2022-12-29T13:56:09.481Z,42.16
2022-12-29T13:58:35.721Z,42.29
2022-12-29T14:01:02.103Z,42.25
2022-12-29T14:03:30.521Z,42.04
2022-12-29T14:05:57.347Z,40.86
2022-12-29T14:08:23.646Z,41.40
2022-12-29T14:10:49.937Z,41.21
2022-12-29T14:13:16.202Z,40.83
2022-12-29T14:15:42.460Z,40.42
2022-12-29T14:18:08.757Z,41.32
2022-12-29T14:20:35.113Z,41.43
2022-12-29T14:23:01.395Z,40.67
2022-12-29T14:25:27.681Z,41.92
2022-12-29T14:27:53.947Z,38.07
2022-12-29T14:30:20.191Z,38.88
2022-12-29T14:32:46.502Z,39.59
2022-12-29T14:35:12.789Z,41.24
2022-12-29T14:37:39.086Z,41.43
2022-12-29T14:40:05.396Z,41.56
2022-12-29T14:42:31.683Z,41.39
2022-12-29T14:44:57.946Z,40.65
2022-12-29T14:47:24.261Z,40.61
2022-12-29T14:49:50.611Z,41.19
2022-12-29T14:52:17.066Z,40.73
2022-12-29T14:54:43.309Z,40.58
2022-12-29T14:57:09.635Z,39.40
2022-12-29T14:59:35.919Z,39.46
2022-12-29T15:02:02.289Z,38.89
2022-12-29T15:04:28.679Z,39.18
2022-12-29T15:06:54.986Z,40.01
2022-12-29T15:09:21.229Z,40.57
2022-12-29T15:11:47.479Z,40.76
2022-12-29T15:14:15.148Z,41.88
2022-12-29T15:16:41.478Z,42.21
2022-12-29T15:19:07.785Z,42.86
2022-12-29T15:21:34.097Z,42.91
2022-12-29T15:24:00.395Z,42.79
2022-12-29T15:26:26.649Z,41.43
2022-12-29T15:28:52.973Z,43.40
2022-12-29T15:31:21.442Z,45.47
2022-12-29T15:33:49.953Z,46.17
2022-12-29T15:36:16.288Z,45.85
2022-12-29T15:38:42.559Z,45.90
2022-12-29T15:41:08.792Z,44.73
2022-12-29T15:43:35.113Z,44.54
2022-12-29T15:46:01.413Z,47.09
2022-12-29T15:48:27.713Z,47.42
2022-12-29T15:50:54.136Z,47.44
2022-12-29T15:53:20.404Z,46.34
2022-12-29T15:55:46.672Z,46.29
2022-12-29T15:58:12.964Z,46.56
2022-12-29T16:00:39.240Z,46.77
2022-12-29T16:03:05.657Z,46.78
2022-12-29T16:05:31.994Z,46.10
2022-12-29T16:07:58.335Z,45.83
2022-12-29T16:10:24.659Z,45.74
2022-12-29T16:12:50.896Z,44.73
2022-12-29T16:15:17.204Z,45.59
2022-12-29T16:17:43.468Z,45.52
2022-12-29T16:20:09.717Z,45.40
2022-12-29T16:22:36.001Z,45.16
2022-12-29T16:25:04.880Z,44.88
2022-12-29T16:27:31.610Z,44.44
2022-12-29T16:29:57.958Z,44.16
2022-12-29T16:32:24.255Z,44.00
2022-12-29T16:34:50.477Z,43.71
2022-12-29T16:37:16.775Z,43.26
2022-12-29T16:39:43.014Z,43.56
2022-12-29T16:42:09.260Z,44.62
2022-12-29T16:44:35.553Z,44.61
2022-12-29T16:47:01.886Z,44.02
2022-12-29T16:49:28.275Z,43.58
2022-12-29T16:51:54.567Z,43.91
2022-12-29T16:54:20.860Z,43.79
2022-12-29T16:56:47.125Z,47.17
2022-12-29T16:59:13.446Z,49.93
2022-12-29T17:01:39.878Z,49.82
2022-12-29T17:04:06.251Z,48.92
2022-12-29T17:06:32.514Z,48.89
2022-12-29T17:08:58.807Z,48.21
2022-12-29T17:11:25.086Z,47.94
2022-12-29T17:13:51.348Z,48.45
2022-12-29T17:16:17.714Z,48.59
2022-12-29T17:18:44.043Z,45.87
2022-12-29T17:21:10.352Z,46.15
2022-12-29T17:23:36.633Z,46.36
2022-12-29T17:26:02.917Z,46.43
2022-12-29T17:28:29.172Z,46.53
2022-12-29T17:30:55.559Z,46.38
2022-12-29T17:33:22.015Z,46.15
2022-12-29T17:35:53.226Z,45.57
2022-12-29T17:38:21.667Z,45.39
2022-12-29T17:40:47.890Z,45.53
2022-12-29T17:43:14.259Z,46.34
2022-12-29T17:45:40.603Z,46.24
2022-12-29T17:48:06.847Z,46.01
2022-12-29T17:50:33.092Z,45.35
2022-12-29T17:53:01.042Z,45.78
2022-12-29T17:55:32.794Z,46.36
2022-12-29T17:58:03.351Z,47.38
2022-12-29T18:00:29.655Z,46.73
2022-12-29T18:02:56.127Z,46.49
2022-12-29T18:05:22.571Z,46.58
2022-12-29T18:07:48.853Z,45.96
2022-12-29T18:10:15.109Z,45.41
2022-12-29T18:12:44.047Z,44.97
2022-12-29T18:15:10.467Z,44.58
2022-12-29T18:17:36.700Z,44.75
2022-12-29T18:20:03.008Z,43.73
2022-12-29T18:22:29.308Z,43.62
2022-12-29T18:24:55.638Z,43.51
2022-12-29T18:27:21.864Z,43.41
2022-12-29T18:29:48.194Z,43.31
2022-12-29T18:32:14.504Z,44.55
2022-12-29T18:34:40.753Z,46.21
2022-12-29T18:37:07.069Z,46.94
2022-12-29T18:39:33.326Z,46.08
2022-12-29T18:41:59.564Z,45.34
2022-12-29T18:44:25.906Z,44.88
2022-12-29T18:46:52.299Z,44.87
2022-12-29T18:49:18.591Z,43.83
2022-12-29T18:51:44.841Z,43.90
2022-12-29T18:54:11.106Z,45.01
2022-12-29T18:56:37.350Z,44.56
2022-12-29T18:59:03.694Z,44.85
2022-12-29T19:01:30.136Z,46.66
2022-12-29T19:03:56.495Z,46.08
2022-12-29T19:06:22.823Z,46.42
2022-12-29T19:08:49.103Z,46.44
2022-12-29T19:11:15.412Z,44.75
2022-12-29T19:13:41.782Z,43.38
2022-12-29T19:16:08.281Z,43.87
2022-12-29T19:18:44.000Z,44.40
2022-12-29T19:21:10.797Z,46.07
2022-12-29T19:23:37.204Z,45.86
2022-12-29T19:26:03.462Z,45.41
2022-12-29T19:28:29.806Z,43.31
2022-12-29T19:30:57.347Z,43.48
2022-12-29T19:33:23.852Z,45.20
2022-12-29T19:35:50.229Z,46.10
2022-12-29T19:38:16.470Z,45.24
2022-12-29T19:40:42.816Z,45.12
2022-12-29T19:43:09.159Z,45.34
2022-12-29T19:45:35.384Z,45.32
2022-12-29T19:48:01.631Z,44.88
2022-12-29T19:50:27.957Z,44.66
2022-12-29T19:53:01.829Z,45.30
2022-12-29T19:55:31.327Z,45.62
2022-12-29T19:57:57.559Z,45.90
2022-12-29T20:00:23.809Z,46.50
2022-12-29T20:02:51.172Z,46.71
2022-12-29T20:05:17.564Z,46.54
2022-12-29T20:07:43.805Z,46.31
2022-12-29T20:10:10.150Z,46.81
2022-12-29T20:12:36.390Z,45.30
2022-12-29T20:15:02.693Z,45.59
2022-12-29T20:18:02.562Z,45.93
2022-12-29T20:20:15.240Z,46.64
2022-12-29T20:22:41.531Z,45.66
2022-12-29T20:27:54.044Z,45.37
2022-12-29T20:30:20.339Z,44.91
2022-12-29T20:32:46.618Z,44.94
2022-12-29T20:35:12.913Z,44.75
2022-12-29T20:37:39.231Z,44.30
2022-12-29T20:40:05.520Z,44.73
2022-12-29T20:42:31.887Z,46.36
2022-12-29T20:44:58.144Z,46.26
2022-12-29T20:47:24.404Z,46.38
2022-12-29T20:49:50.731Z,45.35
2022-12-29T20:52:17.066Z,45.76
2022-12-29T20:54:43.361Z,45.00
2022-12-29T20:57:09.616Z,45.07
2022-12-29T20:59:35.920Z,45.09
2022-12-29T21:02:02.463Z,45.04
2022-12-29T21:04:43.628Z,45.63
2022-12-29T21:07:13.789Z,46.55
2022-12-29T21:09:42.760Z,46.82
2022-12-29T21:12:09.007Z,46.34
2022-12-29T21:14:35.244Z,46.71
2022-12-29T21:17:01.505Z,46.27
2022-12-29T21:19:27.827Z,46.36
2022-12-29T21:21:54.104Z,45.93
2022-12-29T21:24:20.437Z,47.40
2022-12-29T21:26:46.667Z,47.95
2022-12-29T21:29:12.921Z,46.43
2022-12-29T21:31:39.207Z,47.12
2022-12-29T21:34:05.541Z,47.57
2022-12-29T21:36:31.871Z,47.95
2022-12-29T21:38:58.108Z,47.87
2022-12-29T21:41:24.382Z,47.25
2022-12-29T21:43:50.673Z,48.89
2022-12-29T21:46:17.005Z,46.32
2022-12-29T21:48:43.357Z,47.92
2022-12-29T21:51:09.608Z,47.16
2022-12-29T21:53:35.874Z,46.88
2022-12-29T21:56:02.128Z,48.53
2022-12-29T21:58:28.435Z,48.65
2022-12-29T22:00:54.716Z,48.54
2022-12-29T22:03:23.609Z,48.87
2022-12-29T22:05:50.313Z,49.04
2022-12-29T22:08:16.562Z,48.58
2022-12-29T22:10:42.861Z,47.95
2022-12-29T22:13:09.097Z,46.79
2022-12-29T22:15:35.398Z,47.57
2022-12-29T22:18:01.763Z,51.37
2022-12-29T22:20:28.039Z,51.26
2022-12-29T22:22:54.288Z,50.88
2022-12-29T22:25:20.600Z,49.85
2022-12-29T22:27:46.919Z,49.62
2022-12-29T22:30:13.159Z,50.63
2022-12-29T22:32:39.607Z,50.85
2022-12-29T22:35:08.322Z,51.23
2022-12-29T22:37:34.887Z,50.47
2022-12-29T22:40:01.214Z,50.17
2022-12-29T22:42:27.469Z,49.82
2022-12-29T22:44:53.718Z,50.06
2022-12-29T22:47:19.973Z,50.67
2022-12-29T22:50:04.696Z,49.91
2022-12-29T22:52:49.472Z,49.32
2022-12-29T22:55:34.194Z,49.24
2022-12-29T22:58:00.416Z,49.25
2022-12-29T23:00:45.249Z,49.50
2022-12-29T23:03:11.683Z,49.11
2022-12-29T23:05:38.161Z,48.80
2022-12-29T23:08:04.401Z,48.36
2022-12-29T23:10:30.664Z,49.14
2022-12-29T23:12:56.899Z,49.70
2022-12-29T23:15:23.203Z,49.88
2022-12-29T23:17:49.515Z,50.32
2022-12-29T23:20:15.817Z,49.18
2022-12-29T23:22:42.068Z,49.24
2022-12-29T23:25:08.378Z,48.66
2022-12-29T23:27:34.642Z,48.38
2022-12-29T23:30:00.934Z,49.19
2022-12-29T23:32:27.179Z,48.74
2022-12-29T23:34:53.472Z,48.81
2022-12-29T23:37:19.748Z,49.27
2022-12-29T23:39:46.024Z,50.14
2022-12-29T23:42:12.396Z,50.12
2022-12-29T23:44:38.725Z,51.18
2022-12-29T23:47:05.043Z,51.33
2022-12-29T23:49:31.370Z,51.13
2022-12-29T23:51:57.659Z,50.95
2022-12-29T23:54:23.888Z,51.02
2022-12-29T23:56:50.215Z,50.45
2022-12-29T23:59:16.468Z,50.12
